Airfield :
LOGIN :

Register | Disclaimer

   EN    FR    IT 

 










Legend :    VFR   Marginal VFR   IFR   Intensive IFR   Very Intensive IFR
Visi :
Ceiling :
>= 8 km
>= 3000ft
5 to 8 km
1000 to 3000 ft
1500m to 5 km
500 to 1000 ft
800 to 1500m
200 to 500 ft
< 800m
< 200 ft
Symbols :   Thunderstorms  Fog  Heavy snow  Heavy precipitations  Wind > 20 kt
SIGMETs :     Misc.  Thunderstorms  Icing  Turbulence  Mountain Waves  Volcanic Ashes






- Airport Elevation : 26 ft
- IATA code : BIA


LFKB - Bastia

CURRENT METAR :
  • 241330Z AUTO 12015KT 9999 BKN019/// BKN037/// BKN043/// ///TCU 14/11 Q1022 TEMPO 15020G35KT 2000 TSRA BKN010 SCT030CB BKN035

EXPIRED METARs :
  • 241300Z AUTO 13014KT 9999 BKN020/// BKN032/// BKN045/// ///TCU 14/11 Q1022 TEMPO 15020G35KT 2000 TSRA BKN010 SCT030CB BKN035
  • 241230Z AUTO 13014KT 9999 BKN018/// BKN028/// BKN041/// ///TCU 14/11 Q1023 TEMPO 15020G35KT 2000 TSRA BKN010 SCT030CB BKN035
  • 241200Z AUTO 13016KT 9999 BKN013/// BKN031/// OVC041/// ///TCU 14/11 Q1023 TEMPO 15020G35KT 2000 TSRA BKN010 SCT030CB BKN035
  • 241130Z AUTO 13013KT 9999 BKN015 BKN023 BKN033 14/11 Q1023 TEMPO 15020G35KT 2000 TSRA BKN010 SCT030CB BKN035
  • 241100Z AUTO 15013KT 9999 -RADZ BKN015 BKN024 BKN030 13/11 Q1024 BECMG RA

TAF TAF LFKB
Valid from the 24 at 09:00 until the 25 at 09:00 UTC


240800Z 2409/2509 15012KT 9999 FEW014 BKN050 TX15/2412Z TN08/2505Z
BECMG 2412/2414 RA BKN025
TEMPO 2413/2418 15020G35KT 2000 TSRA BKN010 SCT030CB BKN035
BECMG 2418/2420 28010KT NSW FEW015 FEW035CB SCT050
BECMG 2421/2423 NSC
ATIS : +33 4 95 59 19 40



MET'MAP, your aeronautical weather chart ! - Copyright ORBIFLY December 2007 - Disclaimer

ORBIFLY MET'MAP TEAM :

Programming & Development : Alexandra Zaïnal
Concept & original design : Baudouin d'Aumeries
Assistance for programming : Marc-Olivier Méhu
Technical & hardware support : Manuel Goepfert

Contact : metmap@orbifly.com




SOURCES & CREDITS :

   NOAA